Dalton, Ohio
Current Conditions -  °F | °C
As of 2:51 AM on Saturday 22 Nov 2014 (Local Time) from KCAK Reporting Station
Scattered Clouds Scattered Clouds  
Wind Chill: 10°   Ceiling: Unl
Heat Index: 20°   Visibility: 10mi
Dew Point:   Wind: 8mph
Humidity: 62%   Direction: 160°SSE
Pressure: 30.34"   Gusts: NA
Location:  40.8°N, 81.7°W
Report Text: KCAK 220751Z 16007KT 10SM SCT200 M07/M13 A3034 RMK AO2 SLP293 T10671128 $
Loading
Personal Weather Stations






























Interactive Weather Map New forecast layout! Learn more

10-Day Weather Forecast

Advertisements
Track Severe Weather on mobile